Time;durP1;ratioP1;P1;durP2;ratioP2;P2;SDS_P1;SDS_P2;PMS_P1;PMS_P2;Temp;Humidity;BMP_temperature;BMP_pressure;BME280_temperature;BME280_humidity;BME280_pressure;Samples;Min_cycle;Max_cycle;Signal;HPM_P1;HPM_P2
2022/04/29 00:01:58;;;;;;;6.70;3.72;;;17.80;50.50;;;;;;4911599;28;100149;-65
2022/04/29 00:04:25;;;;;;;6.38;3.70;;;17.80;50.40;;;;;;4913100;28;96304;-66
2022/04/29 00:06:51;;;;;;;4.68;2.95;;;17.80;50.40;;;;;;4913062;28;92615;-65
2022/04/29 00:09:17;;;;;;;4.93;3.13;;;17.80;50.30;;;;;;4914010;28;93048;-65
2022/04/29 00:11:43;;;;;;;5.18;2.90;;;17.70;50.30;;;;;;4911832;28;93094;-66
2022/04/29 00:14:09;;;;;;;4.97;2.95;;;17.70;50.30;;;;;;4913823;28;94050;-65
2022/04/29 00:16:35;;;;;;;5.68;3.00;;;17.70;50.30;;;;;;4914017;28;92569;-65
2022/04/29 00:19:01;;;;;;;5.45;3.15;;;17.70;50.30;;;;;;4913739;28;92864;-65
2022/04/29 00:21:26;;;;;;;5.80;3.17;;;17.70;50.30;;;;;;4912981;28;93048;-65
2022/04/29 00:23:52;;;;;;;3.97;2.80;;;17.70;50.30;;;;;;4913498;28;92829;-65
2022/04/29 00:26:17;;;;;;;4.55;2.97;;;17.70;50.40;;;;;;4895047;28;94976;-65
2022/04/29 00:28:44;;;;;;;5.43;3.03;;;17.70;50.30;;;;;;4913675;28;93258;-65
2022/04/29 00:31:09;;;;;;;5.85;3.25;;;17.70;50.30;;;;;;4929658;28;93319;-64
2022/04/29 00:33:36;;;;;;;5.40;2.92;;;17.70;50.30;;;;;;4931266;28;104319;-65
2022/04/29 00:36:02;;;;;;;5.30;3.20;;;17.70;50.30;;;;;;4932894;28;93126;-65
2022/04/29 00:38:27;;;;;;;4.43;3.08;;;17.70;50.20;;;;;;4932060;28;92674;-65
2022/04/29 00:40:53;;;;;;;5.25;3.00;;;17.70;50.30;;;;;;4932377;28;96498;-65
2022/04/29 00:43:19;;;;;;;3.20;2.40;;;17.70;50.30;;;;;;4932623;28;100072;-65
2022/04/29 00:45:45;;;;;;;5.03;3.15;;;17.70;50.20;;;;;;4932176;28;92576;-65
2022/04/29 00:48:11;;;;;;;5.00;3.08;;;17.70;50.20;;;;;;4932625;28;93273;-65
2022/04/29 00:50:37;;;;;;;4.65;2.83;;;17.70;50.20;;;;;;4931165;28;95908;-65
2022/04/29 00:53:03;;;;;;;4.95;2.70;;;17.70;50.30;;;;;;4915047;28;96234;-65
2022/04/29 00:55:30;;;;;;;5.82;3.00;;;17.60;50.20;;;;;;4932659;28;92494;-64
2022/04/29 00:58:16;;;;;;;4.40;2.90;;;17.60;50.20;;;;;;4933124;28;92498;-65
2022/04/29 01:00:42;;;;;;;4.95;2.90;;;17.60;50.20;;;;;;4932757;28;93269;-65
2022/04/29 01:03:11;;;;;;;5.72;2.88;;;17.60;50.20;;;;;;4932742;28;93830;-66
2022/04/29 01:05:39;;;;;;;4.25;2.72;;;17.60;50.20;;;;;;4932362;28;92563;-65
2022/04/29 01:08:05;;;;;;;5.53;3.05;;;17.60;50.20;;;;;;4932277;28;92202;-65
2022/04/29 01:10:32;;;;;;;6.18;2.80;;;17.60;50.20;;;;;;4931857;28;95173;-65
2022/04/29 01:13:03;;;;;;;4.47;2.65;;;17.60;50.20;;;;;;4931894;28;94330;-65
2022/04/29 01:15:30;;;;;;;5.30;2.70;;;17.60;50.10;;;;;;4931027;28;94878;-65
2022/04/29 01:18:00;;;;;;;4.47;2.63;;;17.60;50.10;;;;;;4930588;28;93160;-65
2022/04/29 01:20:29;;;;;;;4.30;2.85;;;17.60;50.10;;;;;;4930135;28;94687;-65
2022/04/29 01:22:55;;;;;;;4.35;2.85;;;17.60;50.20;;;;;;4931161;28;94228;-65
2022/04/29 01:25:21;;;;;;;5.63;2.90;;;17.50;50.10;;;;;;4930840;28;93724;-65
2022/04/29 01:27:46;;;;;;;5.25;2.80;;;17.50;50.10;;;;;;4931306;28;92657;-65
2022/04/29 01:30:13;;;;;;;3.72;2.55;;;17.60;50.20;;;;;;4930773;28;93127;-65
2022/04/29 01:32:40;;;;;;;5.85;2.78;;;17.50;50.00;;;;;;4930849;28;93074;-65
2022/04/29 01:35:10;;;;;;;3.30;2.40;;;17.50;50.10;;;;;;4931237;28;93020;-64
2022/04/29 01:37:36;;;;;;;4.88;2.83;;;17.50;50.10;;;;;;4932141;28;92851;-64
2022/04/29 01:40:03;;;;;;;4.25;2.80;;;17.50;50.10;;;;;;4928782;28;96584;-64
2022/04/29 01:42:28;;;;;;;4.82;2.78;;;17.50;50.10;;;;;;4930582;28;97178;-64
2022/04/29 01:44:54;;;;;;;4.32;2.60;;;17.50;50.10;;;;;;4931496;28;92511;-64
2022/04/29 01:47:20;;;;;;;5.82;2.65;;;17.50;50.10;;;;;;4930891;28;93055;-63
2022/04/29 01:49:45;;;;;;;4.50;2.60;;;17.50;50.10;;;;;;4930961;28;93181;-64
2022/04/29 01:52:11;;;;;;;3.97;2.60;;;17.50;50.00;;;;;;4931641;28;94030;-64
2022/04/29 01:54:37;;;;;;;4.72;2.80;;;17.50;50.10;;;;;;4931411;28;92553;-63
2022/04/29 01:57:04;;;;;;;4.30;2.65;;;17.50;50.10;;;;;;4931731;28;92117;-63
2022/04/29 01:59:31;;;;;;;5.50;2.67;;;17.50;50.10;;;;;;4930536;28;95136;-64
2022/04/29 02:01:57;;;;;;;4.38;2.65;;;17.50;50.10;;;;;;4930684;28;93865;-64
2022/04/29 02:04:24;;;;;;;5.00;2.60;;;17.50;50.00;;;;;;4929430;28;95370;-65
2022/04/29 02:06:49;;;;;;;4.07;2.60;;;17.40;50.00;;;;;;4930956;28;92518;-64
2022/04/29 02:09:15;;;;;;;3.45;2.47;;;17.40;50.00;;;;;;4930184;28;105085;-63
2022/04/29 02:12:03;;;;;;;4.82;2.65;;;17.40;50.00;;;;;;4930740;28;93745;-64
2022/04/29 02:14:28;;;;;;;4.07;2.65;;;17.40;50.00;;;;;;4930464;28;92814;-64
2022/04/29 02:16:55;;;;;;;5.03;2.35;;;17.40;50.00;;;;;;4931264;28;92989;-64
2022/04/29 02:19:22;;;;;;;4.93;2.65;;;17.40;50.00;;;;;;4929625;28;95056;-64
2022/04/29 02:21:48;;;;;;;5.75;2.45;;;17.40;50.00;;;;;;4931066;28;93876;-64
2022/04/29 02:24:14;;;;;;;4.45;2.60;;;17.40;50.00;;;;;;4930760;28;94628;-64
2022/04/29 02:26:39;;;;;;;4.20;2.40;;;17.40;50.00;;;;;;4931915;28;92545;-64
2022/04/29 02:29:05;;;;;;;4.75;2.47;;;17.40;50.00;;;;;;4929462;28;104168;-64
2022/04/29 02:31:30;;;;;;;2.75;2.25;;;17.40;50.00;;;;;;4932680;28;97238;-64
2022/04/29 02:33:57;;;;;;;4.50;2.47;;;17.40;50.00;;;;;;4934887;28;93523;-64
2022/04/29 02:36:23;;;;;;;3.53;2.40;;;17.40;50.00;;;;;;4934819;28;93432;-65
2022/04/29 02:38:48;;;;;;;4.70;2.45;;;17.40;50.00;;;;;;4934253;28;94127;-65
2022/04/29 02:41:14;;;;;;;3.42;2.28;;;17.40;50.00;;;;;;4934475;28;94022;-64
2022/04/29 02:43:41;;;;;;;4.28;2.40;;;17.40;50.00;;;;;;4934158;28;92861;-65
2022/04/29 02:46:08;;;;;;;3.45;2.58;;;17.40;50.00;;;;;;4934762;28;92491;-65
2022/04/29 02:48:35;;;;;;;3.08;2.30;;;17.40;50.00;;;;;;4933748;28;92973;-65
2022/04/29 02:51:02;;;;;;;5.60;2.47;;;17.40;50.00;;;;;;4933668;28;93565;-65
2022/04/29 02:53:29;;;;;;;4.13;2.35;;;17.40;50.00;;;;;;4932257;28;95196;-66
2022/04/29 02:55:54;;;;;;;4.13;2.20;;;17.30;49.90;;;;;;4933829;28;92644;-65
2022/04/29 02:58:20;;;;;;;4.07;2.40;;;17.30;50.00;;;;;;4933918;28;100863;-65
2022/04/29 03:00:45;;;;;;;2.85;2.17;;;17.30;49.90;;;;;;4932979;28;94040;-65
2022/04/29 03:03:11;;;;;;;3.92;2.40;;;17.40;50.00;;;;;;4933623;28;93048;-64
2022/04/29 03:05:36;;;;;;;3.83;2.22;;;17.30;49.90;;;;;;4933026;28;92963;-64
2022/04/29 03:08:02;;;;;;;2.95;2.30;;;17.30;50.00;;;;;;4932152;28;92886;-65
2022/04/29 03:10:27;;;;;;;4.05;2.05;;;17.30;49.90;;;;;;4933181;28;93150;-65
2022/04/29 03:12:53;;;;;;;3.47;2.17;;;17.30;49.90;;;;;;4934187;28;92942;-65
2022/04/29 03:15:19;;;;;;;5.72;2.85;;;17.30;49.90;;;;;;4933197;28;98376;-65
2022/04/29 04:20:33;;;;;;;3.97;2.40;;;17.10;50.00;;;;;;4523215;22;93778;-64
2022/04/29 04:22:59;;;;;;;3.40;2.25;;;17.10;50.00;;;;;;4951778;28;93111;-64
2022/04/29 04:25:24;;;;;;;3.60;2.55;;;17.10;50.00;;;;;;4951766;28;106394;-64
2022/04/29 04:27:50;;;;;;;21.25;2.78;;;17.10;50.00;;;;;;4951426;28;99757;-65
2022/04/29 04:30:15;;;;;;;3.92;2.40;;;17.10;50.00;;;;;;4952603;28;92582;-65
2022/04/29 04:32:41;;;;;;;4.32;2.25;;;17.10;50.00;;;;;;4952517;28;92328;-65
2022/04/29 04:35:07;;;;;;;4.22;2.13;;;17.10;50.10;;;;;;4952382;28;94358;-65
2022/04/29 04:37:33;;;;;;;5.10;2.30;;;17.20;50.10;;;;;;4952039;28;93593;-65
2022/04/29 04:39:59;;;;;;;5.13;2.35;;;17.20;50.10;;;;;;4950940;28;95318;-65
2022/04/29 04:42:25;;;;;;;5.07;2.45;;;17.20;50.10;;;;;;4951923;28;92542;-65
2022/04/29 04:44:52;;;;;;;4.50;2.40;;;17.20;50.00;;;;;;4951478;28;93036;-65
2022/04/29 04:47:18;;;;;;;3.88;2.28;;;17.20;50.00;;;;;;4952104;28;92960;-65
2022/04/29 04:49:44;;;;;;;4.28;2.30;;;17.20;50.00;;;;;;4951625;28;92922;-65
2022/04/29 04:52:10;;;;;;;4.45;2.20;;;17.20;50.00;;;;;;4951644;28;92678;-65
2022/04/29 04:54:36;;;;;;;6.00;2.60;;;17.20;50.00;;;;;;4950979;28;94607;-65
2022/04/29 04:57:04;;;;;;;4.43;2.60;;;17.20;50.00;;;;;;4951634;28;93854;-65
2022/04/29 04:59:29;;;;;;;3.55;2.22;;;17.20;50.10;;;;;;4952068;28;92975;-65
2022/04/29 05:01:55;;;;;;;4.47;2.40;;;17.20;50.00;;;;;;4952046;28;92757;-65
2022/04/29 05:04:21;;;;;;;2.83;2.25;;;17.20;50.00;;;;;;4950164;28;96414;-65
2022/04/29 05:06:47;;;;;;;3.63;2.28;;;17.20;50.00;;;;;;4951535;28;96376;-65
2022/04/29 05:09:12;;;;;;;3.65;2.60;;;17.20;50.10;;;;;;4952573;28;92518;-65
2022/04/29 05:11:39;;;;;;;4.53;2.25;;;17.20;50.10;;;;;;4953065;28;92931;-65
2022/04/29 05:14:05;;;;;;;3.20;2.40;;;17.20;50.10;;;;;;4951591;28;96497;-65
2022/04/29 05:16:31;;;;;;;4.93;2.30;;;17.20;50.10;;;;;;4951581;28;92818;-65
2022/04/29 05:18:56;;;;;;;4.28;2.40;;;17.20;50.30;;;;;;4950352;28;92787;-65
2022/04/29 05:21:22;;;;;;;4.78;2.45;;;17.20;50.50;;;;;;4951414;28;92373;-65
2022/04/29 05:23:47;;;;;;;4.38;2.30;;;17.20;50.40;;;;;;4951280;28;106969;-64
2022/04/29 05:26:13;;;;;;;3.75;2.33;;;17.20;50.40;;;;;;4950049;28;101959;-65
2022/04/29 05:28:38;;;;;;;3.63;2.20;;;17.20;50.40;;;;;;4949802;28;95084;-65
2022/04/29 05:31:04;;;;;;;3.85;2.10;;;17.20;50.30;;;;;;4951312;28;92610;-65
2022/04/29 05:33:33;;;;;;;5.57;2.40;;;17.20;51.30;;;;;;4950366;28;94022;-65
2022/04/29 05:36:00;;;;;;;3.28;2.30;;;17.20;50.60;;;;;;4951221;28;93047;-65
2022/04/29 05:42:14;;;;;;;6.78;2.92;;;17.20;50.70;;;;;;4950145;28;93084;-66
2022/04/29 05:44:00;;;;;;;6.35;2.40;;;17.20;50.80;;;;;;4950413;28;92950;-64
2022/04/29 05:46:25;;;;;;;5.72;2.30;;;17.20;50.80;;;;;;4950019;28;93803;-64
2022/04/29 05:48:51;;;;;;;5.43;2.40;;;17.20;50.70;;;;;;4950485;28;92741;-64
2022/04/29 05:51:16;;;;;;;4.00;2.50;;;17.20;50.80;;;;;;4950219;28;92973;-67
2022/04/29 05:53:42;;;;;;;6.32;2.53;;;17.20;50.90;;;;;;4949243;28;96843;-64
2022/04/29 05:56:07;;;;;;;5.88;2.30;;;17.30;51.20;;;;;;4949778;28;108855;-65
2022/04/29 05:58:33;;;;;;;8.70;2.67;;;17.30;51.40;;;;;;4950488;28;92617;-64
2022/04/29 06:00:59;;;;;;;5.40;2.15;;;17.30;51.50;;;;;;4950186;28;92537;-67
2022/04/29 06:03:25;;;;;;;4.43;2.42;;;17.40;51.70;;;;;;4949145;28;94453;-64
2022/04/29 06:05:51;;;;;;;5.63;2.30;;;17.50;51.70;;;;;;4951514;28;93070;-64
2022/04/29 06:08:16;;;;;;;7.43;2.38;;;17.50;51.70;;;;;;4953274;28;93061;-64
2022/04/29 06:10:42;;;;;;;6.07;2.15;;;17.60;51.90;;;;;;4953732;28;92138;-64
2022/04/29 06:13:08;;;;;;;5.80;2.33;;;17.70;51.90;;;;;;4953277;28;93302;-65
2022/04/29 06:15:35;;;;;;;4.00;2.10;;;17.80;51.90;;;;;;4952072;28;94753;-64
2022/04/29 06:18:01;;;;;;;8.38;2.30;;;17.90;51.90;;;;;;4950939;28;94956;-64
2022/04/29 06:20:29;;;;;;;5.80;2.38;;;17.90;51.80;;;;;;4952788;28;92980;-64
2022/04/29 06:22:55;;;;;;;6.40;2.33;;;18.00;51.80;;;;;;4954052;28;94645;-64
2022/04/29 06:25:22;;;;;;;7.22;2.20;;;18.10;51.70;;;;;;4952338;28;93018;-65
2022/04/29 06:27:48;;;;;;;8.38;2.38;;;18.10;51.60;;;;;;4952996;28;92856;-65
2022/04/29 06:30:15;;;;;;;5.13;2.25;;;18.10;51.50;;;;;;4952964;28;92997;-65
2022/04/29 06:32:40;;;;;;;5.10;1.90;;;18.20;51.50;;;;;;4934439;28;96146;-65
2022/04/29 06:35:08;;;;;;;9.05;2.45;;;18.20;52.40;;;;;;4952499;28;102653;-65
2022/04/29 06:37:34;;;;;;;9.75;2.78;;;18.20;51.10;;;;;;4953476;28;92860;-66
2022/04/29 06:39:59;;;;;;;11.90;2.60;;;18.30;51.00;;;;;;4953224;28;92653;-65
2022/04/29 06:42:25;;;;;;;7.95;2.20;;;18.30;50.90;;;;;;4951381;28;95792;-67
2022/04/29 06:44:57;;;;;;;5.35;2.08;;;18.30;51.80;;;;;;4952574;28;96232;-66
2022/04/29 06:47:22;;;;;;;5.53;2.05;;;18.40;50.80;;;;;;4952869;28;92485;-65
2022/04/29 06:49:48;;;;;;;5.43;1.80;;;18.40;50.60;;;;;;4953899;28;92594;-66
2022/04/29 06:52:14;;;;;;;5.72;2.03;;;18.40;50.60;;;;;;4953601;28;93091;-65
2022/04/29 06:54:40;;;;;;;8.57;2.28;;;18.50;50.50;;;;;;4952468;28;94100;-65
2022/04/29 06:57:06;;;;;;;4.50;2.03;;;18.50;50.50;;;;;;4952095;28;96779;-65
2022/04/29 06:59:32;;;;;;;5.40;1.90;;;18.50;50.40;;;;;;4953256;28;91794;-65
2022/04/29 07:01:58;;;;;;;4.20;1.70;;;18.60;50.30;;;;;;4952452;28;94118;-65
2022/04/29 07:04:28;;;;;;;5.88;1.95;;;18.60;50.30;;;;;;4952339;28;92963;-65
2022/04/29 07:06:56;;;;;;;6.10;1.88;;;18.60;50.20;;;;;;4951861;28;95038;-66
2022/04/29 07:09:22;;;;;;;6.75;1.80;;;18.70;50.20;;;;;;4952425;28;93004;-65
2022/04/29 07:11:48;;;;;;;5.40;2.10;;;18.70;50.10;;;;;;4934425;28;93170;-63
2022/04/29 07:14:13;;;;;;;4.90;1.75;;;18.70;50.10;;;;;;4952942;28;102351;-64
2022/04/29 07:16:40;;;;;;;3.55;2.00;;;18.70;50.00;;;;;;4952528;28;92573;-64
2022/04/29 07:19:06;;;;;;;4.28;1.80;;;18.70;50.10;;;;;;4952252;28;92525;-66
2022/04/29 07:21:31;;;;;;;5.13;1.70;;;18.70;50.00;;;;;;4952005;28;94566;-64
2022/04/29 07:23:59;;;;;;;4.07;1.95;;;18.70;50.00;;;;;;4951704;28;94111;-65
2022/04/29 07:26:25;;;;;;;6.05;1.80;;;18.70;50.10;;;;;;4953183;28;92776;-64
2022/04/29 07:28:51;;;;;;;5.50;2.00;;;18.70;50.10;;;;;;4952314;28;93031;-65
2022/04/29 07:31:18;;;;;;;3.90;1.77;;;18.60;50.10;;;;;;4950784;28;100808;-64
2022/04/29 07:33:43;;;;;;;4.47;1.70;;;18.60;50.10;;;;;;4951476;28;96488;-64
2022/04/29 07:41:57;;;;;;;4.93;1.80;;;18.50;50.20;;;;;;4890094;28;92814;-65
2022/04/29 07:44:22;;;;;;;5.07;1.77;;;18.50;50.20;;;;;;4924652;28;94065;-64
2022/04/29 07:46:49;;;;;;;5.32;2.03;;;18.50;50.30;;;;;;4951706;28;92513;-65
2022/04/29 07:49:15;;;;;;;5.68;2.00;;;18.50;50.30;;;;;;4952105;28;92348;-66
2022/04/29 07:51:42;;;;;;;4.15;1.80;;;18.40;50.20;;;;;;4951039;28;103068;-64
2022/04/29 07:54:08;;;;;;;4.45;1.90;;;18.40;50.30;;;;;;4951557;28;93761;-64
2022/04/29 07:56:34;;;;;;;7.40;1.90;;;18.40;50.30;;;;;;4950661;28;95021;-65
2022/04/29 07:59:00;;;;;;;4.30;1.92;;;18.40;50.30;;;;;;4951042;28;92577;-64
2022/04/29 08:01:26;;;;;;;4.15;1.95;;;18.40;50.40;;;;;;4951618;28;94559;-64
2022/04/29 08:03:55;;;;;;;4.85;1.80;;;18.30;50.30;;;;;;4951545;28;93963;-65
2022/04/29 08:06:21;;;;;;;7.35;2.25;;;18.30;50.40;;;;;;4951947;28;92937;-64
2022/04/29 08:08:47;;;;;;;4.80;2.00;;;18.30;50.40;;;;;;4951944;28;92885;-64
2022/04/29 08:11:14;;;;;;;6.32;1.95;;;18.30;50.40;;;;;;4951145;28;94205;-64
2022/04/29 08:13:41;;;;;;;3.70;1.80;;;18.30;50.40;;;;;;4934015;28;94116;-64
2022/04/29 08:16:09;;;;;;;3.25;1.65;;;18.20;50.50;;;;;;4951050;28;92608;-65
2022/04/29 08:18:34;;;;;;;4.43;1.80;;;18.20;50.40;;;;;;4950815;28;92585;-64
2022/04/29 08:21:00;;;;;;;4.53;1.90;;;18.20;50.40;;;;;;4950780;28;97363;-64
2022/04/29 08:23:26;;;;;;;3.88;1.85;;;18.20;50.50;;;;;;4951315;28;96138;-64
2022/04/29 08:25:51;;;;;;;5.22;1.90;;;18.20;50.50;;;;;;4952229;28;92776;-64
2022/04/29 08:28:18;;;;;;;3.92;1.90;;;18.20;50.50;;;;;;4952071;28;92987;-64
2022/04/29 08:30:44;;;;;;;4.10;1.85;;;18.20;50.60;;;;;;4934997;28;94169;-64
2022/04/29 08:33:14;;;;;;;3.55;1.60;;;18.20;50.60;;;;;;4952758;28;93068;-64
2022/04/29 08:35:40;;;;;;;4.63;2.00;;;18.20;50.50;;;;;;4951781;28;92898;-64
2022/04/29 08:38:09;;;;;;;5.90;1.90;;;18.10;50.60;;;;;;4952144;28;91803;-64
2022/04/29 08:40:45;;;;;;;4.03;1.70;;;18.10;50.60;;;;;;4951784;28;94562;-64
2022/04/29 08:43:14;;;;;;;4.88;1.95;;;18.10;50.50;;;;;;4951442;28;94010;-64
2022/04/29 08:45:41;;;;;;;3.80;1.45;;;18.10;50.50;;;;;;4951303;28;95382;-64
2022/04/29 08:48:07;;;;;;;2.53;1.50;;;18.00;50.50;;;;;;4951699;28;93110;-64
2022/04/29 08:50:33;;;;;;;2.85;1.70;;;18.00;50.50;;;;;;4950952;28;93125;-67
2022/04/29 08:52:59;;;;;;;2.95;1.52;;;18.00;50.50;;;;;;4951690;28;92816;-64
2022/04/29 09:01:04;;;;;;;2.92;1.50;;;18.00;50.50;;;;;;4951515;28;93049;-64
2022/04/29 09:03:29;;;;;;;2.38;1.60;;;18.00;50.50;;;;;;4951667;28;93906;-64
2022/04/29 09:05:55;;;;;;;3.53;1.85;;;18.00;50.50;;;;;;4951328;28;92859;-64
2022/04/29 09:08:23;;;;;;;3.35;1.60;;;17.90;50.50;;;;;;4951214;28;92606;-64
2022/04/29 09:10:51;;;;;;;3.78;1.42;;;17.90;50.60;;;;;;4950215;28;97557;-63
2022/04/29 09:13:19;;;;;;;3.22;1.75;;;17.90;50.60;;;;;;4951014;28;96625;-63
2022/04/29 09:16:00;;;;;;;4.15;1.63;;;17.90;50.60;;;;;;4951752;28;92945;-64
2022/04/29 09:18:41;;;;;;;2.30;1.42;;;17.90;50.60;;;;;;4950464;28;92584;-63
2022/04/29 09:21:15;;;;;;;2.88;1.60;;;17.90;50.70;;;;;;4931487;28;94422;-63
2022/04/29 09:23:44;;;;;;;2.63;1.50;;;17.90;50.60;;;;;;4931771;28;93905;-64
2022/04/29 09:26:25;;;;;;;2.90;1.73;;;17.80;50.60;;;;;;4932277;28;94327;-63
2022/04/29 09:29:09;;;;;;;3.88;1.88;;;17.80;50.50;;;;;;4932529;28;91772;-64
2022/04/29 09:32:04;;;;;;;3.67;1.63;;;17.80;50.60;;;;;;4931654;28;94433;-64
2022/04/29 09:34:58;;;;;;;3.00;1.85;;;17.80;50.50;;;;;;4911229;28;94941;-63
2022/04/29 09:37:28;;;;;;;4.53;1.67;;;17.70;50.50;;;;;;4931115;28;95268;-64
2022/04/29 09:40:05;;;;;;;3.28;1.60;;;17.70;50.60;;;;;;4931758;28;92904;-63
2022/04/29 09:42:40;;;;;;;2.95;1.50;;;17.80;50.70;;;;;;4932015;28;94552;-63
2022/04/29 09:45:18;;;;;;;2.45;1.50;;;17.70;50.60;;;;;;4931870;28;94128;-63
2022/04/29 09:47:44;;;;;;;3.08;1.80;;;17.80;50.60;;;;;;4932476;28;92565;-63
2022/04/29 09:50:10;;;;;;;2.47;1.80;;;17.70;50.60;;;;;;4932347;28;92746;-63
2022/04/29 09:52:40;;;;;;;2.97;1.70;;;17.70;50.60;;;;;;4930695;28;94093;-63
2022/04/29 09:55:18;;;;;;;3.40;1.75;;;17.70;50.60;;;;;;4931648;28;93941;-63
2022/04/29 09:57:48;;;;;;;3.47;1.63;;;17.70;50.70;;;;;;4931444;28;92796;-63
2022/04/29 10:00:15;;;;;;;3.35;1.80;;;17.70;50.50;;;;;;4932072;28;92857;-63
2022/04/29 10:02:41;;;;;;;3.83;2.20;;;17.70;50.50;;;;;;4929434;28;97275;-63
2022/04/29 10:05:07;;;;;;;3.30;1.95;;;17.70;50.50;;;;;;4931774;28;96506;-64
2022/04/29 10:07:34;;;;;;;2.47;1.70;;;17.60;50.40;;;;;;4931511;28;92606;-64
2022/04/29 10:10:02;;;;;;;3.15;2.05;;;17.70;50.50;;;;;;4932157;28;92556;-63
2022/04/29 10:12:29;;;;;;;5.35;2.00;;;17.70;50.60;;;;;;4931010;28;93897;-64
2022/04/29 10:15:05;;;;;;;3.70;1.70;;;17.60;50.60;;;;;;4930123;28;94547;-63
2022/04/29 10:23:12;;;;;;;9.02;2.20;;;17.70;50.90;;;;;;4951096;28;92660;-64
2022/04/29 10:25:46;;;;;;;5.18;2.05;;;17.70;51.10;;;;;;4950802;28;94047;-64
2022/04/29 10:28:17;;;;;;;3.67;2.60;;;17.70;51.10;;;;;;4948125;28;94914;-64
2022/04/29 10:30:43;;;;;;;11.02;4.30;;;17.80;51.40;;;;;;4949181;28;92675;-64
2022/04/29 10:33:08;;;;;;;11.80;4.88;;;17.80;51.60;;;;;;4951338;28;94098;-63
2022/04/29 10:35:43;;;;;;;12.13;4.93;;;17.80;52.80;;;;;;4950519;28;93750;-63
2022/04/29 10:38:13;;;;;;;7.55;4.53;;;17.80;51.80;;;;;;4949907;28;92740;-64
2022/04/29 10:40:39;;;;;;;8.95;4.22;;;17.90;52.10;;;;;;4950676;28;92784;-63
2022/04/29 10:43:10;;;;;;;9.52;4.35;;;17.90;52.20;;;;;;4950084;28;94309;-62
2022/04/29 10:46:05;;;;;;;9.93;3.80;;;17.90;52.20;;;;;;4950858;28;93415;-62
2022/04/29 10:48:36;;;;;;;8.52;3.88;;;18.00;52.30;;;;;;4949495;28;92750;-63
2022/04/29 10:51:10;;;;;;;12.15;3.53;;;18.10;52.20;;;;;;4950835;28;92742;-62
2022/04/29 10:53:41;;;;;;;7.00;3.33;;;18.20;52.30;;;;;;4951624;28;96503;-63
2022/04/29 10:56:25;;;;;;;10.35;3.60;;;18.20;52.20;;;;;;4953453;28;96156;-63
2022/04/29 10:58:51;;;;;;;10.38;3.38;;;18.40;52.30;;;;;;4953331;28;92963;-65
2022/04/29 11:01:16;;;;;;;7.78;3.00;;;18.40;52.20;;;;;;4952975;28;92407;-64
2022/04/29 11:03:46;;;;;;;8.85;3.50;;;18.60;52.00;;;;;;4952623;28;93114;-63
2022/04/29 11:06:13;;;;;;;12.77;3.10;;;18.60;51.80;;;;;;4952287;28;94301;-64
2022/04/29 11:08:40;;;;;;;10.52;3.08;;;18.70;51.60;;;;;;4953747;28;92712;-65
2022/04/29 11:11:08;;;;;;;9.60;2.95;;;18.80;51.40;;;;;;4935797;28;92013;-64
2022/04/29 11:13:42;;;;;;;9.00;2.80;;;18.90;51.30;;;;;;4953630;28;94150;-64
2022/04/29 11:16:16;;;;;;;8.50;2.60;;;18.90;51.20;;;;;;4952928;28;93888;-64
2022/04/29 11:18:44;;;;;;;7.28;2.58;;;19.00;51.00;;;;;;4951769;28;94946;-64
2022/04/29 11:26:49;;;;;;;6.20;2.38;;;19.10;50.50;;;;;;4953160;28;92766;-65
2022/04/29 11:29:17;;;;;;;7.32;2.20;;;19.10;50.50;;;;;;4953968;28;93067;-65
2022/04/29 11:31:43;;;;;;;5.85;2.40;;;19.10;50.30;;;;;;4953143;28;92546;-64
2022/04/29 11:34:10;;;;;;;7.20;2.28;;;19.20;50.40;;;;;;4953154;28;93959;-64
2022/04/29 11:36:37;;;;;;;5.97;1.98;;;19.20;50.30;;;;;;4953909;28;93857;-64
2022/04/29 11:39:15;;;;;;;6.95;2.00;;;19.20;50.20;;;;;;4953687;28;92467;-64
2022/04/29 11:41:54;;;;;;;5.38;2.28;;;19.30;50.20;;;;;;4952398;28;94206;-66
2022/04/29 11:44:34;;;;;;;5.07;2.13;;;19.30;50.00;;;;;;4952122;28;96752;-67
2022/04/29 11:47:01;;;;;;;4.97;2.50;;;19.30;50.00;;;;;;4952924;28;96910;-65
2022/04/29 11:49:32;;;;;;;8.32;2.13;;;19.30;50.00;;;;;;4952751;28;92854;-64
2022/04/29 11:52:16;;;;;;;3.78;2.00;;;19.30;49.90;;;;;;4953640;28;92733;-64
2022/04/29 11:54:58;;;;;;;5.95;2.03;;;19.40;49.90;;;;;;4952085;28;93749;-67
2022/04/29 11:57:26;;;;;;;5.88;2.08;;;19.40;49.80;;;;;;4954001;28;93749;-64
2022/04/29 11:59:52;;;;;;;4.82;1.60;;;19.40;49.80;;;;;;4953418;28;92436;-64
2022/04/29 12:02:19;;;;;;;5.13;1.75;;;19.40;49.70;;;;;;4953565;28;91750;-65
2022/04/29 12:05:05;;;;;;;4.15;1.73;;;19.40;49.80;;;;;;4952199;28;94710;-64
2022/04/29 12:07:41;;;;;;;4.97;2.03;;;19.40;49.60;;;;;;4951794;28;93825;-65
2022/04/29 12:10:22;;;;;;;4.20;1.67;;;19.40;49.60;;;;;;4949409;28;95343;-68
2022/04/29 12:13:02;;;;;;;3.45;1.50;;;19.50;49.70;;;;;;4952786;28;93093;-64
2022/04/29 12:15:36;;;;;;;3.15;1.63;;;19.50;49.50;;;;;;4951542;28;94521;-64
2022/04/29 12:18:09;;;;;;;4.10;1.70;;;19.50;49.50;;;;;;4951026;28;93970;-64
2022/04/29 12:20:37;;;;;;;3.13;1.67;;;19.50;49.70;;;;;;4950612;28;92925;-64
2022/04/29 12:23:16;;;;;;;5.82;1.70;;;19.50;49.60;;;;;;4951545;28;93148;-64
2022/04/29 12:25:45;;;;;;;4.85;2.00;;;19.40;49.60;;;;;;4951352;28;93691;-64
2022/04/29 12:28:25;;;;;;;4.05;1.60;;;19.40;49.50;;;;;;4950831;28;96186;-64
2022/04/29 12:36:53;;;;;;;3.65;1.42;;;19.40;49.50;;;;;;4950438;28;95060;-63
2022/04/29 12:39:26;;;;;;;4.65;1.55;;;19.40;49.50;;;;;;4950710;28;96463;-64
2022/04/29 12:42:11;;;;;;;4.10;1.70;;;19.40;49.60;;;;;;4950850;28;92528;-64
2022/04/29 12:47:40;;;;;;;5.47;1.83;;;19.40;49.60;;;;;;4950552;28;92783;-63
2022/04/29 12:50:31;;;;;;;5.78;1.50;;;19.40;49.80;;;;;;4950603;28;93860;-63
2022/04/29 12:53:08;;;;;;;2.90;1.55;;;19.40;50.00;;;;;;4950559;28;92477;-63
2022/04/29 12:55:44;;;;;;;5.20;1.55;;;19.40;50.00;;;;;;4951904;28;91767;-64
2022/04/29 12:58:14;;;;;;;4.35;1.80;;;19.30;49.90;;;;;;4950426;28;96149;-64
2022/04/29 13:00:48;;;;;;;4.55;1.52;;;19.30;50.00;;;;;;4950637;28;93984;-64
2022/04/29 13:03:21;;;;;;;4.55;1.50;;;19.30;50.20;;;;;;4949803;28;95382;-64
2022/04/29 13:05:46;;;;;;;;;;;19.20;50.20;;;;;;4950719;28;94089;-65
2022/04/29 13:08:12;;;;;;;2.78;1.38;;;19.20;50.10;;;;;;4951513;28;93978;-64
2022/04/29 13:10:53;;;;;;;5.20;1.70;;;19.20;50.40;;;;;;4949692;28;93947;-64
2022/04/29 13:13:21;;;;;;;6.18;1.75;;;19.10;50.20;;;;;;4950206;28;93879;-67
2022/04/29 13:15:48;;;;;;;8.10;1.70;;;19.10;50.30;;;;;;4950748;28;93040;-64
2022/04/29 13:18:15;;;;;;;2.80;1.50;;;19.10;50.20;;;;;;4950657;28;93845;-67
2022/04/29 13:20:42;;;;;;;6.10;1.52;;;19.10;50.10;;;;;;4949396;28;96465;-63
2022/04/29 13:23:10;;;;;;;7.03;1.90;;;19.10;50.30;;;;;;4949712;28;92755;-66
2022/04/29 13:25:40;;;;;;;7.72;1.60;;;19.00;50.30;;;;;;4950082;28;92526;-64
2022/04/29 13:28:07;;;;;;;4.43;1.60;;;19.00;50.40;;;;;;4949855;28;95764;-64
2022/04/29 13:30:34;;;;;;;11.00;1.98;;;19.00;50.40;;;;;;4950399;28;95016;-63
2022/04/29 13:33:01;;;;;;;5.68;2.03;;;19.00;50.70;;;;;;4949687;28;93187;-64
2022/04/29 13:35:28;;;;;;;3.45;1.75;;;18.90;50.80;;;;;;4949540;28;92989;-64
2022/04/29 13:37:55;;;;;;;6.65;1.67;;;18.90;50.80;;;;;;4949888;28;95170;-63
2022/04/29 13:40:21;;;;;;;7.25;2.00;;;18.90;50.90;;;;;;4949992;28;93430;-64
2022/04/29 13:42:46;;;;;;;12.38;2.10;;;19.00;51.10;;;;;;4950312;28;92846;-63
2022/04/29 13:45:13;;;;;;;9.07;2.03;;;18.90;51.20;;;;;;4949258;28;93426;-66
2022/04/29 13:47:39;;;;;;;14.98;2.45;;;18.90;51.30;;;;;;4949753;28;93065;-64
2022/04/29 13:50:08;;;;;;;11.98;1.90;;;18.90;51.50;;;;;;4950837;28;93666;-70
2022/04/29 13:55:19;;;;;;;13.20;2.22;;;18.90;51.50;;;;;;4949211;28;92922;-63
2022/04/29 13:57:45;;;;;;;11.40;2.13;;;18.90;51.40;;;;;;4948902;28;93344;-65
2022/04/29 14:00:13;;;;;;;8.55;2.03;;;18.80;51.40;;;;;;4931653;28;95544;-63
2022/04/29 14:02:39;;;;;;;10.20;2.75;;;18.80;51.30;;;;;;4949847;28;92754;-64
2022/04/29 14:05:09;;;;;;;11.00;2.33;;;18.80;51.30;;;;;;4950282;28;92853;-63
2022/04/29 14:07:35;;;;;;;10.43;2.20;;;18.70;51.30;;;;;;4949439;28;94457;-63
2022/04/29 14:10:01;;;;;;;7.25;2.20;;;18.70;51.30;;;;;;4949728;28;94152;-65
2022/04/29 14:12:28;;;;;;;10.07;2.40;;;18.70;51.20;;;;;;4949530;28;92561;-64
2022/04/29 14:14:53;;;;;;;8.48;2.08;;;18.70;51.20;;;;;;4949872;28;92580;-63
2022/04/29 14:17:19;;;;;;;6.82;1.90;;;18.70;51.20;;;;;;4948372;28;95203;-63
2022/04/29 14:19:45;;;;;;;5.63;2.00;;;18.70;51.20;;;;;;4948164;28;96298;-64
2022/04/29 14:22:11;;;;;;;6.30;1.92;;;18.60;51.10;;;;;;4949683;28;94037;-62
2022/04/29 14:24:37;;;;;;;6.75;2.00;;;18.70;52.10;;;;;;4949630;28;92442;-62
2022/04/29 14:27:04;;;;;;;6.57;2.15;;;18.60;51.10;;;;;;4951545;28;94049;-63
2022/04/29 14:29:33;;;;;;;6.35;2.30;;;18.60;51.00;;;;;;4952233;28;92878;-63
2022/04/29 14:31:59;;;;;;;4.82;1.90;;;18.60;51.00;;;;;;4952789;28;92536;-63